createdAt,value
2022-09-06T00:01:10.123Z,101387.81
2022-09-06T00:04:15.584Z,101388.53
2022-09-06T00:07:18.162Z,101388.91
2022-09-06T00:10:20.699Z,101391.41
2022-09-06T00:13:23.151Z,101392.09
2022-09-06T00:16:30.162Z,101385.88
2022-09-06T00:19:34.311Z,101382.03
2022-09-06T00:22:36.985Z,101373.03
2022-09-06T00:25:39.434Z,101385.22
2022-09-06T00:28:42.099Z,101378.88
2022-09-06T00:31:44.547Z,101382.06
2022-09-06T00:34:48.312Z,101373.16
2022-09-06T00:37:50.810Z,101372.41
2022-09-06T00:40:53.286Z,101368.13
2022-09-06T00:43:55.835Z,101362.72
2022-09-06T00:46:58.280Z,101356.69
2022-09-06T00:50:03.537Z,101354.44
2022-09-06T00:53:06.033Z,101361.34
2022-09-06T00:56:08.577Z,101353.84
2022-09-06T00:59:11.187Z,101355.97
2022-09-06T01:02:14.047Z,101357.22
2022-09-06T01:05:18.634Z,101360.31
2022-09-06T01:08:29.942Z,101355.56
2022-09-06T01:11:47.306Z,101358.25
2022-09-06T01:15:02.900Z,101361.44
2022-09-06T01:18:18.158Z,101359.00
2022-09-06T01:21:33.836Z,101349.56
2022-09-06T01:25:05.126Z,101352.38
2022-09-06T01:28:30.411Z,101352.19
2022-09-06T01:31:39.862Z,101348.91
2022-09-06T01:34:48.813Z,101353.41
2022-09-06T01:37:51.556Z,101358.16
2022-09-06T01:40:54.011Z,101352.09
2022-09-06T01:43:58.699Z,101355.72
2022-09-06T01:47:14.711Z,101356.09
2022-09-06T01:50:32.649Z,101346.56
2022-09-06T01:54:04.836Z,101346.38
2022-09-06T01:57:16.370Z,101345.72
2022-09-06T02:00:22.556Z,101356.97
2022-09-06T02:03:33.291Z,101354.97
2022-09-06T02:06:40.922Z,101358.47
2022-09-06T02:09:47.075Z,101350.94
2022-09-06T02:12:54.799Z,101353.19
2022-09-06T02:16:02.905Z,101349.81
2022-09-06T02:19:12.978Z,101347.56
2022-09-06T02:22:19.690Z,101345.06
2022-09-06T02:25:33.651Z,101343.56
2022-09-06T02:28:36.477Z,101345.28
2022-09-06T02:31:45.269Z,101354.00
2022-09-06T02:34:48.188Z,101363.81
2022-09-06T02:37:51.629Z,101354.44
2022-09-06T02:40:56.405Z,101346.13
2022-09-06T02:43:58.859Z,101350.44
2022-09-06T02:47:03.459Z,101342.22
2022-09-06T02:50:08.160Z,101343.63
2022-09-06T02:53:12.491Z,101346.56
2022-09-06T02:56:15.041Z,101339.06
2022-09-06T02:59:17.519Z,101334.47
2022-09-06T03:02:21.339Z,101345.78
2022-09-06T03:05:23.983Z,101341.03
2022-09-06T03:08:29.249Z,101329.50
2022-09-06T03:11:31.769Z,101327.00
2022-09-06T03:14:36.004Z,101333.19
2022-09-06T03:17:40.108Z,101324.41
2022-09-06T03:20:42.575Z,101326.44
2022-09-06T03:23:45.837Z,101324.09
2022-09-06T03:26:48.333Z,101326.31
2022-09-06T03:29:50.799Z,101323.88
2022-09-06T03:32:55.001Z,101324.25
2022-09-06T03:35:59.294Z,101316.56
2022-09-06T03:39:01.750Z,101308.25
2022-09-06T03:42:04.511Z,101312.97
2022-09-06T03:45:07.931Z,101299.75
2022-09-06T03:48:11.699Z,101309.91
2022-09-06T03:51:14.167Z,101309.03
2022-09-06T03:54:16.613Z,101305.81
2022-09-06T03:57:19.143Z,101300.28
2022-09-06T04:00:21.799Z,101297.94
2022-09-06T04:03:25.697Z,101305.19
2022-09-06T04:06:28.317Z,101295.72
2022-09-06T04:09:30.844Z,101291.28
2022-09-06T04:12:34.895Z,101292.34
2022-09-06T04:15:37.593Z,101303.06
2022-09-06T04:18:41.547Z,101303.94
2022-09-06T04:21:44.058Z,101295.94
2022-09-06T04:24:46.529Z,101299.69
2022-09-06T04:27:48.992Z,101300.56
2022-09-06T04:30:54.700Z,101304.22
2022-09-06T04:33:58.508Z,101296.63
2022-09-06T04:37:00.959Z,101303.34
2022-09-06T04:40:04.444Z,101294.94
2022-09-06T04:43:06.961Z,101301.41
2022-09-06T04:46:15.632Z,101300.41
2022-09-06T04:49:19.482Z,101293.66
2022-09-06T04:52:22.054Z,101300.28
2022-09-06T04:55:26.386Z,101294.78
2022-09-06T04:58:28.982Z,101298.03
2022-09-06T05:01:31.641Z,101310.47
2022-09-06T05:04:35.475Z,101300.63
2022-09-06T05:07:37.942Z,101309.06
2022-09-06T05:10:40.412Z,101319.13
2022-09-06T05:13:43.224Z,101309.84
2022-09-06T05:16:46.651Z,101307.44
2022-09-06T05:19:50.496Z,101299.41
2022-09-06T05:22:54.094Z,101305.31
2022-09-06T05:25:56.548Z,101310.06
2022-09-06T05:28:59.075Z,101310.31
2022-09-06T05:32:01.891Z,101308.81
2022-09-06T05:35:06.181Z,101306.59
2022-09-06T05:38:08.637Z,101306.53
2022-09-06T05:41:11.096Z,101296.53
2022-09-06T05:44:14.127Z,101293.63
2022-09-06T05:47:16.730Z,101286.56
2022-09-06T05:50:20.510Z,101285.84
2022-09-06T05:53:22.963Z,101280.81
2022-09-06T05:56:25.570Z,101289.47
2022-09-06T05:59:28.044Z,101284.41
2022-09-06T06:02:30.575Z,101289.53
2022-09-06T06:05:34.403Z,101286.53
2022-09-06T06:08:37.298Z,101282.91
2022-09-06T06:11:40.804Z,101279.03
2022-09-06T06:14:43.307Z,101273.00
2022-09-06T06:17:45.852Z,101277.03
2022-09-06T06:20:49.668Z,101264.88
2022-09-06T06:23:54.799Z,101259.66
2022-09-06T06:26:57.246Z,101262.63
2022-09-06T06:29:59.695Z,101264.63
2022-09-06T06:33:02.541Z,101269.59
2022-09-06T06:36:08.494Z,101280.03
2022-09-06T06:39:10.986Z,101269.63
2022-09-06T06:42:13.713Z,101275.31
2022-09-06T06:45:16.295Z,101263.59
2022-09-06T06:48:18.848Z,101270.00
2022-09-06T06:51:24.436Z,101267.94
2022-09-06T06:54:26.931Z,101264.28
2022-09-06T06:57:29.376Z,101250.69
2022-09-06T07:00:31.932Z,101250.56
2022-09-06T07:03:34.412Z,101262.09
2022-09-06T07:13:34.970Z,101253.69
2022-09-06T07:16:37.522Z,101250.28
2022-09-06T07:26:30.760Z,101264.00
2022-09-06T07:29:33.478Z,101264.53
2022-09-06T07:32:36.116Z,101266.84
2022-09-06T07:35:38.595Z,101271.94
2022-09-06T07:38:42.691Z,101262.00
2022-09-06T07:41:45.159Z,101265.09
2022-09-06T07:44:47.713Z,101260.00
2022-09-06T07:51:07.213Z,101275.63
2022-09-06T07:54:29.872Z,101273.53
2022-09-06T07:57:33.375Z,101272.78
2022-09-06T08:00:35.904Z,101267.69
2022-09-06T08:03:38.400Z,101274.97
2022-09-06T08:10:08.027Z,101273.25
2022-09-06T08:13:10.500Z,101259.56
2022-09-06T08:16:14.038Z,101269.81
2022-09-06T08:19:18.287Z,101261.66
2022-09-06T08:22:20.776Z,101257.53
2022-09-06T08:25:25.759Z,101256.38
2022-09-06T08:28:28.917Z,101266.41
2022-09-06T08:31:33.409Z,101256.53
2022-09-06T08:34:35.940Z,101250.47
2022-09-06T08:37:38.481Z,101255.75
2022-09-06T08:40:42.295Z,101244.09
2022-09-06T08:47:17.491Z,101236.03
2022-09-06T08:50:20.772Z,101249.78
2022-09-06T08:53:23.244Z,101242.66
2022-09-06T08:56:33.494Z,101241.34
2022-09-06T08:59:39.811Z,101227.09
2022-09-06T09:02:45.071Z,101222.94
2022-09-06T09:05:51.272Z,101220.94
2022-09-06T09:09:04.058Z,101210.94
2022-09-06T09:12:09.840Z,101224.91
2022-09-06T09:15:15.167Z,101227.56
2022-09-06T09:18:23.974Z,101226.59
2022-09-06T09:21:31.348Z,101226.28
2022-09-06T09:24:34.632Z,101217.63
2022-09-06T09:27:39.581Z,101214.06
2022-09-06T09:30:51.303Z,101206.25
2022-09-06T09:33:53.809Z,101214.13
2022-09-06T09:40:39.026Z,101206.03
2022-09-06T09:43:55.294Z,101195.09
2022-09-06T09:46:57.809Z,101202.75
2022-09-06T09:50:00.868Z,101188.06
2022-09-06T09:53:10.202Z,101198.50
2022-09-06T09:56:12.726Z,101179.47
2022-09-06T09:59:26.748Z,101173.13
2022-09-06T10:02:32.379Z,101171.00
2022-09-06T10:05:34.894Z,101173.69
2022-09-06T10:08:41.960Z,101171.56
2022-09-06T10:11:55.175Z,101174.97
2022-09-06T10:15:02.300Z,101175.25
2022-09-06T10:18:17.998Z,101165.44
2022-09-06T10:21:22.386Z,101163.59
2022-09-06T10:24:32.111Z,101160.22
2022-09-06T10:27:35.886Z,101172.69
2022-09-06T10:30:45.697Z,101160.91
2022-09-06T10:34:01.511Z,101166.72
2022-09-06T10:37:17.494Z,101161.91
2022-09-06T10:40:30.921Z,101163.47
2022-09-06T10:43:43.708Z,101159.50
2022-09-06T10:46:51.162Z,101160.34
2022-09-06T10:49:57.117Z,101160.47
2022-09-06T10:53:08.439Z,101155.13
2022-09-06T10:56:13.868Z,101164.69
2022-09-06T10:59:38.454Z,101155.34
2022-09-06T11:02:48.692Z,101158.22
2022-09-06T11:05:55.389Z,101151.66
2022-09-06T11:09:03.694Z,101150.31
2022-09-06T11:12:11.798Z,101139.53
2022-09-06T11:15:15.975Z,101133.53
2022-09-06T11:18:28.176Z,101145.09
2022-09-06T11:22:13.006Z,101139.59
2022-09-06T11:25:43.198Z,101136.34
2022-09-06T11:28:48.593Z,101131.53
2022-09-06T11:35:28.082Z,101134.59
2022-09-06T11:38:30.940Z,101139.25
2022-09-06T11:41:36.659Z,101135.13
2022-09-06T11:45:17.982Z,101127.63
2022-09-06T11:48:37.139Z,101108.97
2022-09-06T11:51:42.689Z,101097.06
2022-09-06T11:54:48.274Z,101115.34
2022-09-06T11:57:55.475Z,101109.94
2022-09-06T12:01:40.885Z,101097.69
2022-09-06T12:05:22.471Z,101093.13
2022-09-06T12:08:32.805Z,101097.84
2022-09-06T12:11:37.714Z,101085.88
2022-09-06T12:14:42.617Z,101082.13
2022-09-06T12:17:48.617Z,101082.19
2022-09-06T12:21:04.275Z,101086.25
2022-09-06T12:24:09.360Z,101073.91
2022-09-06T12:27:16.616Z,101071.38
2022-09-06T12:30:34.308Z,101076.56
2022-09-06T12:33:38.808Z,101063.13
2022-09-06T12:36:55.244Z,101068.28
2022-09-06T12:39:59.784Z,101066.59
2022-09-06T12:43:05.310Z,101052.94
2022-09-06T12:46:08.619Z,101053.38
2022-09-06T12:49:13.088Z,101049.44
2022-09-06T12:52:19.818Z,101055.38
2022-09-06T12:55:28.043Z,101053.84
2022-09-06T12:58:30.600Z,101052.53
2022-09-06T13:01:35.805Z,101048.59
2022-09-06T13:04:42.991Z,101035.50
2022-09-06T13:07:49.998Z,101038.81
2022-09-06T13:10:54.179Z,101026.94
2022-09-06T13:13:57.124Z,101031.13
2022-09-06T13:16:59.995Z,101025.63
2022-09-06T13:20:12.956Z,101024.91
2022-09-06T13:23:21.866Z,101030.84
2022-09-06T13:26:37.273Z,101034.09
2022-09-06T13:29:39.722Z,101032.13
2022-09-06T13:32:47.965Z,101033.38
2022-09-06T13:35:53.726Z,101040.00
2022-09-06T13:38:56.501Z,101021.94
2022-09-06T13:42:03.788Z,101022.25
2022-09-06T13:45:24.600Z,101015.16
2022-09-06T13:48:29.259Z,101013.34
2022-09-06T13:51:34.031Z,101012.88
2022-09-06T13:54:36.875Z,101010.03
2022-09-06T13:57:40.651Z,101007.03
2022-09-06T14:00:43.140Z,101011.72
2022-09-06T14:03:45.598Z,101019.13
2022-09-06T14:06:48.800Z,101012.66
2022-09-06T14:09:51.287Z,101004.78
2022-09-06T14:12:55.475Z,101006.31
2022-09-06T14:15:57.982Z,101001.91
2022-09-06T14:19:00.783Z,101006.19
2022-09-06T14:22:04.930Z,100998.09
2022-09-06T14:25:08.182Z,101000.47
2022-09-06T14:28:11.982Z,100994.41
2022-09-06T14:31:16.712Z,100989.00
2022-09-06T14:34:19.356Z,100991.84
2022-09-06T14:37:22.575Z,100984.00
2022-09-06T14:40:25.175Z,100981.84
2022-09-06T14:43:29.057Z,100971.38
2022-09-06T14:46:31.906Z,100972.06
2022-09-06T14:49:34.442Z,100971.50
2022-09-06T14:52:37.258Z,100974.84
2022-09-06T14:55:39.717Z,100960.56
2022-09-06T14:58:44.220Z,100969.75
2022-09-06T15:01:46.786Z,100961.50
2022-09-06T15:04:49.336Z,100964.13
2022-09-06T15:07:52.297Z,100965.69
2022-09-06T15:10:55.248Z,100975.56
2022-09-06T15:13:59.610Z,100968.78
2022-09-06T15:17:04.129Z,100959.16
2022-09-06T15:20:07.239Z,100957.63
2022-09-06T15:23:25.842Z,100964.00
2022-09-06T15:26:28.616Z,100963.59
2022-09-06T15:29:32.404Z,100955.34
2022-09-06T15:32:34.930Z,100959.72
2022-09-06T15:35:39.348Z,100956.34
2022-09-06T15:38:43.630Z,100952.53
2022-09-06T15:41:46.224Z,100945.06
2022-09-06T15:44:50.429Z,100945.34
2022-09-06T15:47:53.956Z,100945.78
2022-09-06T15:50:56.443Z,100937.44
2022-09-06T15:54:00.182Z,100931.50
2022-09-06T15:57:03.760Z,100932.75
2022-09-06T16:00:09.152Z,100927.41
2022-09-06T16:03:12.088Z,100917.22
2022-09-06T16:09:27.193Z,100926.97
2022-09-06T16:12:29.680Z,100922.88
2022-09-06T16:15:33.525Z,100925.56
2022-09-06T16:18:38.003Z,100920.75
2022-09-06T16:21:42.660Z,100918.50
2022-09-06T16:24:45.353Z,100919.91
2022-09-06T16:27:47.811Z,100915.22
2022-09-06T16:30:51.635Z,100920.91
2022-09-06T16:33:54.779Z,100912.06
2022-09-06T16:36:57.263Z,100910.53
2022-09-06T16:39:59.829Z,100903.03
2022-09-06T16:43:03.148Z,100897.34
2022-09-06T16:46:07.872Z,100893.81
2022-09-06T16:49:10.630Z,100891.97
2022-09-06T16:52:14.267Z,100885.44
2022-09-06T16:55:16.864Z,100879.06
2022-09-06T16:58:19.386Z,100876.22
2022-09-06T17:01:24.346Z,100874.09
2022-09-06T17:04:27.004Z,100875.75
2022-09-06T17:07:29.570Z,100873.91
2022-09-06T17:10:32.198Z,100876.28
2022-09-06T17:13:34.987Z,100875.66
2022-09-06T17:16:56.834Z,100870.00
2022-09-06T17:19:59.354Z,100878.84
2022-09-06T17:23:01.810Z,100874.31
2022-09-06T17:26:05.474Z,100881.16
2022-09-06T17:29:08.539Z,100875.47
2022-09-06T17:32:12.302Z,100866.28
2022-09-06T17:35:14.806Z,100875.69
2022-09-06T17:38:17.279Z,100877.94
2022-09-06T17:41:24.195Z,100876.75
2022-09-06T17:44:27.351Z,100874.59
2022-09-06T17:47:31.880Z,100885.72
2022-09-06T17:50:34.974Z,100874.44
2022-09-06T17:53:37.978Z,100876.50
2022-09-06T17:56:41.380Z,100879.53
2022-09-06T17:59:44.077Z,100882.59
2022-09-06T18:02:48.239Z,100879.22
2022-09-06T18:05:50.748Z,100876.34
2022-09-06T18:08:55.490Z,100875.03
2022-09-06T18:11:58.913Z,100890.25
2022-09-06T18:15:02.277Z,100897.09
2022-09-06T18:18:06.416Z,100891.16
2022-09-06T18:21:08.922Z,100896.19
2022-09-06T18:24:13.651Z,100887.75
2022-09-06T18:27:16.554Z,100890.63
2022-09-06T18:30:19.058Z,100887.84
2022-09-06T18:33:24.836Z,100893.25
2022-09-06T18:36:31.966Z,100891.56
2022-09-06T18:39:35.062Z,100896.25
2022-09-06T18:42:37.580Z,100898.69
2022-09-06T18:45:40.368Z,100899.91
2022-09-06T18:48:44.267Z,100903.81
2022-09-06T18:51:46.863Z,100905.38
2022-09-06T18:54:49.964Z,100906.84
2022-09-06T18:57:53.529Z,100900.03
2022-09-06T19:01:02.834Z,100896.13
2022-09-06T19:04:07.988Z,100899.59
2022-09-06T19:07:10.513Z,100900.44
2022-09-06T19:10:13.132Z,100895.16
2022-09-06T19:13:15.669Z,100896.78
2022-09-06T19:16:18.352Z,100895.16
2022-09-06T19:19:23.173Z,100894.44
2022-09-06T19:22:26.559Z,100895.06
2022-09-06T19:25:29.481Z,100896.63
2022-09-06T19:28:32.931Z,100891.88
2022-09-06T19:31:37.760Z,100893.44
2022-09-06T19:34:41.994Z,100889.06
2022-09-06T19:37:44.503Z,100880.69
2022-09-06T19:40:47.114Z,100885.56
2022-09-06T19:43:51.612Z,100887.13
2022-09-06T19:46:54.154Z,100889.22
2022-09-06T19:49:58.014Z,100875.81
2022-09-06T19:53:04.164Z,100876.06
2022-09-06T19:56:10.537Z,100872.19
2022-09-06T19:59:14.000Z,100864.50
2022-09-06T20:02:16.479Z,100863.53
2022-09-06T20:05:20.312Z,100858.59
2022-09-06T20:08:22.835Z,100865.00
2022-09-06T20:11:27.183Z,100864.28
2022-09-06T20:14:29.849Z,100865.16
2022-09-06T20:17:34.147Z,100857.25
2022-09-06T20:20:38.428Z,100856.63
2022-09-06T20:23:41.455Z,100856.00
2022-09-06T20:26:43.928Z,100852.63
2022-09-06T20:29:46.417Z,100859.16
2022-09-06T20:32:48.891Z,100844.44
2022-09-06T20:35:56.939Z,100857.59
2022-09-06T20:38:59.472Z,100861.13
2022-09-06T20:42:01.958Z,100849.78
2022-09-06T20:45:04.791Z,100854.28
2022-09-06T20:48:08.502Z,100837.88
2022-09-06T20:51:15.534Z,100845.81
2022-09-06T20:54:18.108Z,100834.50
2022-09-06T20:57:20.600Z,100828.50
2022-09-06T21:00:24.073Z,100836.16
2022-09-06T21:03:27.862Z,100830.31
2022-09-06T21:06:33.734Z,100831.66
2022-09-06T21:09:36.904Z,100827.44
2022-09-06T21:12:39.373Z,100831.09
2022-09-06T21:15:41.923Z,100831.56
2022-09-06T21:18:44.444Z,100834.69
2022-09-06T21:21:48.542Z,100833.97
2022-09-06T21:24:51.012Z,100836.00
2022-09-06T21:27:55.797Z,100830.56
2022-09-06T21:31:02.830Z,100838.13
2022-09-06T21:34:15.676Z,100835.47
2022-09-06T21:37:21.211Z,100843.50
2022-09-06T21:40:23.659Z,100828.28
2022-09-06T21:43:26.637Z,100822.59
2022-09-06T21:46:35.324Z,100823.44
2022-09-06T21:49:38.427Z,100812.47
2022-09-06T21:52:42.226Z,100815.66
2022-09-06T21:55:45.262Z,100812.25
2022-09-06T21:58:51.370Z,100812.13
2022-09-06T22:01:54.324Z,100803.59
2022-09-06T22:04:56.890Z,100797.06
2022-09-06T22:08:01.125Z,100805.06
2022-09-06T22:11:09.332Z,100797.66
2022-09-06T22:14:15.003Z,100788.53
2022-09-06T22:17:17.501Z,100792.91
2022-09-06T22:20:22.059Z,100791.34
2022-09-06T22:23:26.028Z,100792.06
2022-09-06T22:26:30.686Z,100794.25
2022-09-06T22:29:33.143Z,100786.34
2022-09-06T22:32:35.969Z,100788.91
2022-09-06T22:35:38.455Z,100787.34
2022-09-06T22:38:42.254Z,100786.84
2022-09-06T22:41:44.809Z,100782.97
2022-09-06T22:44:47.343Z,100786.47
2022-09-06T22:47:50.980Z,100791.28
2022-09-06T22:50:53.613Z,100784.25
2022-09-06T22:53:57.411Z,100780.09
2022-09-06T22:57:00.308Z,100786.44
2022-09-06T23:00:03.938Z,100769.66
2022-09-06T23:03:06.400Z,100775.88
2022-09-06T23:06:09.663Z,100776.72
2022-09-06T23:09:13.462Z,100772.31
2022-09-06T23:12:15.947Z,100770.75
2022-09-06T23:15:18.553Z,100765.63
2022-09-06T23:18:21.002Z,100762.00
2022-09-06T23:21:25.155Z,100754.00
2022-09-06T23:24:29.107Z,100744.72
2022-09-06T23:27:31.610Z,100751.41
2022-09-06T23:30:37.500Z,100747.41
2022-09-06T23:33:40.546Z,100743.50
2022-09-06T23:36:43.085Z,100737.44
2022-09-06T23:39:46.931Z,100741.47
2022-09-06T23:42:49.415Z,100739.00
2022-09-06T23:45:51.952Z,100745.97
2022-09-06T23:48:54.449Z,100748.50
2022-09-06T23:51:56.898Z,100740.34
2022-09-06T23:55:00.661Z,100736.22
2022-09-06T23:58:03.172Z,100741.66
